Time;durP1;ratioP1;P1;durP2;ratioP2;P2;SDS_P1;SDS_P2;PMS_P1;PMS_P2;Temp;Humidity;BMP_temperature;BMP_pressure;BME280_temperature;BME280_humidity;BME280_pressure;Samples;Min_cycle;Max_cycle;Signal;HPM_P1;HPM_P2
2023/07/01 00:01:42;;;;;;;1.35;0.90;;;17.90;99.90;;;;;;5060663;28;20473;-80
2023/07/01 00:04:09;;;;;;;23.98;1.02;;;18.00;99.90;;;;;;5056452;28;20527;-82
2023/07/01 00:06:35;;;;;;;1.80;1.27;;;17.70;99.90;;;;;;5056107;28;20064;-79
2023/07/01 00:09:01;;;;;;;4.18;1.55;;;17.70;99.90;;;;;;5055148;28;20057;-80
2023/07/01 00:11:28;;;;;;;1.10;0.95;;;17.60;99.90;;;;;;5055059;28;20029;-79
2023/07/01 00:13:54;;;;;;;0.63;0.55;;;17.50;99.90;;;;;;5037201;28;20021;-79
2023/07/01 00:16:20;;;;;;;2.60;1.38;;;17.50;99.90;;;;;;5053732;28;20062;-79
2023/07/01 00:18:46;;;;;;;1.98;0.68;;;17.60;99.90;;;;;;5054928;28;20040;-79
2023/07/01 00:21:12;;;;;;;0.52;0.43;;;17.60;99.90;;;;;;5037093;28;20029;-80
2023/07/01 00:23:37;;;;;;;5.68;1.13;;;17.40;99.90;;;;;;5054596;28;20033;-80
2023/07/01 00:26:03;;;;;;;0.90;0.50;;;17.40;99.90;;;;;;5055305;28;20045;-80
2023/07/01 00:28:29;;;;;;;3.10;1.30;;;17.30;99.90;;;;;;5055113;28;20033;-81
2023/07/01 00:30:54;;;;;;;0.22;0.20;;;17.30;99.90;;;;;;5054931;28;20029;-79
2023/07/01 00:33:21;;;;;;;1.13;1.00;;;17.50;99.90;;;;;;5054045;28;20062;-79
2023/07/01 00:35:46;;;;;;;0.80;0.55;;;17.60;99.90;;;;;;5053516;28;20059;-79
2023/07/01 00:38:12;;;;;;;0.03;0.03;;;17.60;99.90;;;;;;5054354;28;20066;-79
2023/07/01 00:40:38;;;;;;;2.15;1.25;;;17.70;99.90;;;;;;5053204;28;20017;-80
2023/07/01 00:43:04;;;;;;;3.65;0.68;;;17.70;99.90;;;;;;5054562;28;20064;-80
2023/07/01 00:45:29;;;;;;;3.20;0.30;;;17.80;99.90;;;;;;5055291;28;20494;-80
2023/07/01 00:47:55;;;;;;;2.92;0.55;;;17.70;99.90;;;;;;5054616;28;20112;-79
2023/07/01 00:50:22;;;;;;;7.85;1.27;;;17.60;99.90;;;;;;5055665;28;20025;-81
2023/07/01 00:52:49;;;;;;;0.35;0.35;;;17.70;99.90;;;;;;5059926;28;20398;-80
2023/07/01 00:55:15;;;;;;;2.90;1.35;;;17.80;99.90;;;;;;5060053;28;20017;-80
2023/07/01 00:57:40;;;;;;;1.15;0.60;;;17.70;99.90;;;;;;5057586;28;20021;-79
2023/07/01 01:00:10;;;;;;;4.53;1.17;;;17.50;99.90;;;;;;5054184;28;20433;-81
2023/07/01 01:03:04;;;;;;;8.25;0.70;;;17.50;99.90;;;;;;5056644;28;20059;-80
2023/07/01 01:05:55;;;;;;;0.10;0.10;;;17.50;99.90;;;;;;5055728;28;20025;-80
2023/07/01 01:08:35;;;;;;;10.07;4.77;;;17.60;99.90;;;;;;5056160;28;20036;-79
2023/07/01 01:11:02;;;;;;;3.42;1.65;;;17.60;99.90;;;;;;5053857;28;20132;-79
2023/07/01 01:13:30;;;;;;;0.98;0.40;;;17.50;99.90;;;;;;5056647;28;20029;-80
2023/07/01 01:16:00;;;;;;;3.70;1.02;;;17.50;99.90;;;;;;5055813;28;20025;-80
2023/07/01 01:18:30;;;;;;;0.30;0.30;;;17.40;99.90;;;;;;5056532;28;20036;-80
2023/07/01 01:20:59;;;;;;;7.20;3.38;;;17.30;99.90;;;;;;5052854;28;20147;-80
2023/07/01 01:23:36;;;;;;;0.30;0.30;;;17.40;99.90;;;;;;5053022;28;20544;-81
2023/07/01 01:26:09;;;;;;;0.20;0.20;;;17.40;99.90;;;;;;5053598;28;20036;-81
2023/07/01 01:28:35;;;;;;;0.38;0.38;;;17.20;99.90;;;;;;5053705;28;20071;-81
2023/07/01 01:31:02;;;;;;;0.00;0.00;;;17.30;99.90;;;;;;5054409;28;20029;-80
2023/07/01 01:33:29;;;;;;;0.43;0.43;;;17.30;99.90;;;;;;5054642;28;20029;-80
2023/07/01 01:36:05;;;;;;;1.35;0.93;;;17.30;99.90;;;;;;5054156;28;20022;-81
2023/07/01 01:38:34;;;;;;;3.25;1.17;;;17.20;99.90;;;;;;5054479;28;20041;-79
2023/07/01 01:41:15;;;;;;;6.40;0.85;;;17.30;99.90;;;;;;5054224;28;20033;-80
2023/07/01 01:44:18;;;;;;;0.85;0.65;;;17.40;99.90;;;;;;5053949;28;20460;-81
2023/07/01 01:46:44;;;;;;;4.72;1.50;;;17.40;99.90;;;;;;5052314;28;20041;-79
2023/07/01 01:49:12;;;;;;;0.30;0.30;;;17.40;99.90;;;;;;5054176;28;20133;-79
2023/07/01 01:51:40;;;;;;;0.30;0.30;;;17.30;99.90;;;;;;5053137;28;20071;-79
2023/07/01 01:54:10;;;;;;;2.95;1.17;;;17.30;99.90;;;;;;5056510;28;20037;-80
2023/07/01 01:56:37;;;;;;;2.28;1.30;;;17.20;99.90;;;;;;5057618;28;20068;-80
2023/07/01 01:59:03;;;;;;;0.32;0.32;;;17.10;99.90;;;;;;5057466;28;20028;-81
2023/07/01 02:01:29;;;;;;;1.10;0.57;;;17.10;99.90;;;;;;5064073;28;20076;-80
2023/07/01 02:03:55;;;;;;;0.00;0.00;;;17.10;99.90;;;;;;5053062;28;20029;-80
2023/07/01 02:06:21;;;;;;;3.88;1.73;;;16.90;99.90;;;;;;5055530;28;20020;-81
2023/07/01 02:08:47;;;;;;;0.88;0.25;;;17.00;99.90;;;;;;5054746;28;20458;-79
2023/07/01 02:11:13;;;;;;;0.47;0.47;;;17.00;99.90;;;;;;5055788;28;20493;-80
2023/07/01 02:13:39;;;;;;;2.00;1.75;;;17.00;99.90;;;;;;5056055;28;20032;-79
2023/07/01 02:16:05;;;;;;;4.75;1.73;;;16.70;99.90;;;;;;5058752;28;20029;-80
2023/07/01 02:18:31;;;;;;;1.70;1.17;;;16.80;99.90;;;;;;5053270;28;20037;-81
2023/07/01 02:20:56;;;;;;;2.63;1.02;;;16.70;99.90;;;;;;5053795;28;20032;-80
2023/07/01 02:23:22;;;;;;;0.10;0.10;;;16.60;99.90;;;;;;5053168;28;20029;-79
2023/07/01 02:25:48;;;;;;;1.55;0.45;;;16.60;99.90;;;;;;5056106;28;20032;-81
2023/07/01 02:28:14;;;;;;;1.48;0.77;;;16.50;99.90;;;;;;5054513;28;20028;-79
2023/07/01 02:30:40;;;;;;;2.65;0.47;;;16.40;99.90;;;;;;5054224;28;20350;-80
2023/07/01 02:33:05;;;;;;;3.05;0.82;;;16.40;99.90;;;;;;5052350;28;20040;-80
2023/07/01 02:35:31;;;;;;;1.45;1.02;;;16.40;99.90;;;;;;5051340;28;20025;-80
2023/07/01 02:37:57;;;;;;;1.90;1.00;;;16.40;99.90;;;;;;5052417;28;20107;-80
2023/07/01 02:40:23;;;;;;;1.10;1.00;;;16.40;99.90;;;;;;5052781;28;20035;-80
2023/07/01 02:42:49;;;;;;;2.17;1.55;;;16.40;99.90;;;;;;5054421;28;20087;-81
2023/07/01 02:45:14;;;;;;;0.20;0.20;;;16.30;99.90;;;;;;5053827;28;20049;-81
2023/07/01 02:47:41;;;;;;;0.25;0.25;;;16.40;99.90;;;;;;5053709;28;20064;-80
2023/07/01 02:50:07;;;;;;;2.35;1.38;;;16.40;99.90;;;;;;5053568;28;20029;-81
2023/07/01 02:52:36;;;;;;;0.80;0.80;;;16.30;99.90;;;;;;5052294;28;20032;-79
2023/07/01 02:55:02;;;;;;;4.45;1.40;;;16.40;99.90;;;;;;5063711;28;20449;-80
2023/07/01 02:57:28;;;;;;;2.25;1.15;;;16.30;99.90;;;;;;5080318;28;20056;-81
2023/07/01 02:59:56;;;;;;;0.47;0.47;;;16.30;99.90;;;;;;5079270;28;20500;-82
2023/07/01 03:02:22;;;;;;;1.98;1.20;;;16.40;99.90;;;;;;5077700;28;20032;-81
2023/07/01 03:04:48;;;;;;;0.22;0.22;;;16.50;99.90;;;;;;5077707;28;20107;-82
2023/07/01 03:07:14;;;;;;;11.32;1.27;;;16.50;99.90;;;;;;5077360;28;20155;-80
2023/07/01 03:09:39;;;;;;;1.10;1.00;;;16.50;99.90;;;;;;5075548;28;20020;-82
2023/07/01 03:12:06;;;;;;;5.55;1.90;;;16.50;99.90;;;;;;5076494;28;20067;-82
2023/07/01 03:14:32;;;;;;;3.40;0.60;;;16.50;99.90;;;;;;5078607;28;20032;-81
2023/07/01 03:16:58;;;;;;;0.30;0.30;;;16.40;99.90;;;;;;5078655;28;20017;-82
2023/07/01 03:19:24;;;;;;;2.83;0.93;;;16.50;99.90;;;;;;5078545;28;20025;-83
2023/07/01 03:21:50;;;;;;;3.72;2.22;;;16.50;99.90;;;;;;5079179;28;20055;-82
2023/07/01 03:24:16;;;;;;;1.13;1.05;;;16.50;99.90;;;;;;5080599;28;20086;-81
2023/07/01 03:26:43;;;;;;;1.55;0.70;;;16.50;99.90;;;;;;5076009;28;20021;-82
2023/07/01 03:29:09;;;;;;;0.10;0.10;;;16.50;99.90;;;;;;5077565;28;20033;-81
2023/07/01 03:31:35;;;;;;;1.35;0.70;;;16.60;99.90;;;;;;5080325;28;20021;-80
2023/07/01 03:34:02;;;;;;;0.15;0.15;;;16.60;99.90;;;;;;5081912;28;20033;-82
2023/07/01 03:36:27;;;;;;;0.63;0.63;;;16.80;99.90;;;;;;5078755;28;20021;-81
2023/07/01 03:38:56;;;;;;;1.13;0.55;;;16.80;99.90;;;;;;5080536;28;20036;-81
2023/07/01 03:41:22;;;;;;;1.10;0.85;;;16.70;99.90;;;;;;5079975;28;20366;-82
2023/07/01 03:43:48;;;;;;;1.00;0.93;;;16.80;99.90;;;;;;5076496;28;20040;-79
2023/07/01 03:46:14;;;;;;;1.35;1.25;;;16.80;99.90;;;;;;5076386;28;20119;-81
2023/07/01 03:48:40;;;;;;;0.65;0.65;;;16.80;99.90;;;;;;5075506;28;20071;-80
2023/07/01 03:51:05;;;;;;;2.53;1.75;;;16.70;99.90;;;;;;5075482;28;20385;-80
2023/07/01 03:53:31;;;;;;;0.00;0.00;;;16.50;99.90;;;;;;5075289;28;20043;-81
2023/07/01 03:55:57;;;;;;;1.55;0.57;;;16.50;99.90;;;;;;5074944;28;20029;-81
2023/07/01 03:58:24;;;;;;;2.08;1.25;;;16.70;99.90;;;;;;5074821;28;20032;-80
2023/07/01 04:00:52;;;;;;;0.80;0.80;;;16.60;99.90;;;;;;5072974;28;20432;-80
2023/07/01 04:03:18;;;;;;;1.67;1.33;;;16.60;99.90;;;;;;5073038;28;20086;-81
2023/07/01 04:05:43;;;;;;;0.57;0.57;;;16.40;99.90;;;;;;5074299;28;20389;-81
2023/07/01 04:08:09;;;;;;;5.32;1.48;;;16.50;99.90;;;;;;5074980;28;20050;-80
2023/07/01 04:10:35;;;;;;;1.17;0.63;;;16.50;99.90;;;;;;5075074;28;20017;-81
2023/07/01 04:13:02;;;;;;;0.38;0.38;;;16.50;99.90;;;;;;5074958;28;20028;-81
2023/07/01 04:15:28;;;;;;;0.05;0.05;;;16.50;99.90;;;;;;5074569;28;20028;-81
2023/07/01 04:17:54;;;;;;;1.00;0.63;;;16.40;99.90;;;;;;5074816;28;20426;-80
2023/07/01 04:20:20;;;;;;;1.33;1.23;;;16.40;99.90;;;;;;5074791;28;20460;-81
2023/07/01 04:22:46;;;;;;;1.83;0.93;;;16.40;99.90;;;;;;5074662;28;20044;-81
2023/07/01 04:25:12;;;;;;;1.00;0.98;;;16.30;99.90;;;;;;5075063;28;20105;-81
2023/07/01 04:27:39;;;;;;;0.05;0.05;;;16.30;99.90;;;;;;5075265;28;20486;-81
2023/07/01 04:30:07;;;;;;;1.67;1.08;;;16.30;99.90;;;;;;5075408;28;20491;-81
2023/07/01 04:32:34;;;;;;;1.70;1.20;;;16.40;99.90;;;;;;5076185;28;20055;-81
2023/07/01 04:35:01;;;;;;;0.73;0.70;;;16.40;99.90;;;;;;5076297;28;20028;-81
2023/07/01 04:37:27;;;;;;;0.10;0.10;;;16.40;99.90;;;;;;5079318;28;20024;-81
2023/07/01 04:39:52;;;;;;;0.20;0.20;;;16.50;99.90;;;;;;5079560;28;20523;-82
2023/07/01 04:42:18;;;;;;;1.92;0.65;;;16.60;99.90;;;;;;5075264;28;20378;-81
2023/07/01 04:44:53;;;;;;;3.33;0.65;;;16.60;99.90;;;;;;5075468;28;20473;-81
2023/07/01 04:47:23;;;;;;;1.63;1.00;;;16.50;99.90;;;;;;5075978;28;20048;-81
2023/07/01 04:49:52;;;;;;;1.08;0.98;;;16.50;99.90;;;;;;5077169;28;20028;-82
2023/07/01 04:52:22;;;;;;;0.30;0.22;;;16.50;99.90;;;;;;5075514;28;20035;-81
2023/07/01 04:54:48;;;;;;;0.70;0.57;;;16.50;99.90;;;;;;5073526;28;20029;-81
2023/07/01 04:57:15;;;;;;;0.20;0.20;;;16.40;99.90;;;;;;5074000;28;20107;-80
2023/07/01 04:59:41;;;;;;;0.60;0.57;;;16.60;99.90;;;;;;5075309;28;20366;-81
2023/07/01 05:02:07;;;;;;;0.15;0.15;;;16.60;99.90;;;;;;5075357;28;20056;-81
2023/07/01 05:04:33;;;;;;;0.08;0.08;;;16.60;99.90;;;;;;5076494;28;20028;-81
2023/07/01 05:06:59;;;;;;;0.30;0.30;;;16.50;99.90;;;;;;5075134;28;20465;-81
2023/07/01 05:09:25;;;;;;;0.63;0.35;;;16.60;99.90;;;;;;5075162;28;20033;-82
2023/07/01 05:11:50;;;;;;;0.22;0.20;;;16.70;99.90;;;;;;5074924;28;20016;-81
2023/07/01 05:14:16;;;;;;;1.00;0.90;;;16.50;99.90;;;;;;5073212;28;20043;-81
2023/07/01 05:16:42;;;;;;;0.85;0.60;;;16.50;99.90;;;;;;5074058;28;20047;-82
2023/07/01 05:19:07;;;;;;;2.30;1.08;;;16.50;99.90;;;;;;5076684;28;20024;-81
2023/07/01 05:21:34;;;;;;;1.30;0.73;;;16.50;99.90;;;;;;5075903;28;20545;-81
2023/07/01 05:23:59;;;;;;;1.40;0.90;;;16.60;99.90;;;;;;5075620;28;20029;-82
2023/07/01 05:26:26;;;;;;;0.50;0.50;;;16.60;99.90;;;;;;5074554;28;20027;-81
2023/07/01 05:28:52;;;;;;;1.65;0.65;;;16.70;99.90;;;;;;5073827;28;20032;-81
2023/07/01 05:31:18;;;;;;;1.10;0.82;;;16.70;99.90;;;;;;5073941;28;20099;-81
2023/07/01 05:33:45;;;;;;;0.40;0.40;;;16.80;99.90;;;;;;5079316;28;20031;-81
2023/07/01 05:36:12;;;;;;;0.90;0.80;;;16.70;99.90;;;;;;5078039;28;20400;-81
2023/07/01 05:38:39;;;;;;;0.73;0.73;;;16.80;99.90;;;;;;5075683;28;20036;-81
2023/07/01 05:41:06;;;;;;;3.72;0.93;;;16.80;99.90;;;;;;5074816;28;20040;-81
2023/07/01 05:43:31;;;;;;;2.70;1.40;;;16.70;99.90;;;;;;5074986;28;20036;-80
2023/07/01 05:45:57;;;;;;;0.10;0.10;;;16.70;99.90;;;;;;5073472;28;20104;-81
2023/07/01 05:48:23;;;;;;;1.20;1.10;;;16.80;99.90;;;;;;5073806;28;20024;-80
2023/07/01 05:50:49;;;;;;;1.25;1.00;;;16.80;99.90;;;;;;5073981;28;20028;-80
2023/07/01 05:53:15;;;;;;;0.95;0.85;;;16.80;99.90;;;;;;5073076;28;20044;-79
2023/07/01 05:55:40;;;;;;;0.32;0.32;;;16.80;99.90;;;;;;5071998;28;20027;-79
2023/07/01 05:58:06;;;;;;;0.05;0.05;;;16.90;99.90;;;;;;5072822;28;20028;-83
2023/07/01 06:00:32;;;;;;;3.63;2.10;;;16.90;99.90;;;;;;5072913;28;20025;-81
2023/07/01 06:02:58;;;;;;;0.88;0.88;;;17.00;99.90;;;;;;5072730;28;20028;-79
2023/07/01 06:05:23;;;;;;;0.30;0.30;;;16.90;99.90;;;;;;5073051;28;20036;-80
2023/07/01 06:07:50;;;;;;;2.45;1.55;;;16.90;99.90;;;;;;5072703;28;20464;-81
2023/07/01 06:10:15;;;;;;;7.57;2.92;;;16.90;99.90;;;;;;5072033;28;20036;-81
2023/07/01 06:12:41;;;;;;;0.68;0.63;;;16.80;99.90;;;;;;5071105;28;20044;-82
2023/07/01 06:15:08;;;;;;;1.45;1.05;;;17.00;99.90;;;;;;5072920;28;20107;-81
2023/07/01 06:17:34;;;;;;;1.73;1.08;;;16.90;99.90;;;;;;5074587;28;20373;-82
2023/07/01 06:19:59;;;;;;;0.22;0.22;;;16.90;99.90;;;;;;5075291;28;20477;-80
2023/07/01 06:22:25;;;;;;;0.80;0.75;;;16.80;99.90;;;;;;5075429;28;20127;-81
2023/07/01 06:24:51;;;;;;;0.08;0.08;;;16.90;99.90;;;;;;5071711;28;20036;-80
2023/07/01 06:27:17;;;;;;;0.35;0.32;;;16.90;99.90;;;;;;5073051;28;20469;-81
2023/07/01 06:29:42;;;;;;;0.68;0.57;;;17.00;99.90;;;;;;5073904;28;20044;-82
2023/07/01 06:32:08;;;;;;;0.65;0.65;;;17.00;99.90;;;;;;5073565;28;20025;-82
2023/07/01 06:34:34;;;;;;;0.75;0.68;;;17.00;99.90;;;;;;5059222;28;20104;-81
2023/07/01 06:37:00;;;;;;;0.65;0.65;;;17.00;99.90;;;;;;5045969;28;20051;-80
2023/07/01 06:39:26;;;;;;;0.68;0.60;;;17.10;99.90;;;;;;5049884;28;20032;-80
2023/07/01 06:41:51;;;;;;;1.33;1.23;;;17.20;99.90;;;;;;5048097;28;20036;-80
2023/07/01 06:44:17;;;;;;;1.10;0.60;;;17.00;99.90;;;;;;5051399;28;20112;-80
2023/07/01 06:46:43;;;;;;;1.70;1.33;;;17.10;99.90;;;;;;5051637;28;20017;-81
2023/07/01 06:49:09;;;;;;;0.50;0.45;;;17.10;99.90;;;;;;5051649;28;20543;-85
2023/07/01 06:51:34;;;;;;;0.28;0.22;;;17.10;99.90;;;;;;5051785;28;20024;-81
2023/07/01 06:54:01;;;;;;;0.15;0.15;;;17.20;99.90;;;;;;5051520;28;20029;-83
2023/07/01 06:56:26;;;;;;;0.10;0.10;;;17.20;99.90;;;;;;5051535;28;20458;-82
2023/07/01 06:58:52;;;;;;;0.30;0.10;;;17.40;99.90;;;;;;5051429;28;20052;-80
2023/07/01 07:01:18;;;;;;;0.13;0.13;;;17.40;99.90;;;;;;5051964;28;20028;-80
2023/07/01 07:03:44;;;;;;;0.30;0.30;;;17.30;99.90;;;;;;5059740;28;20028;-86
2023/07/01 07:06:09;;;;;;;0.00;0.00;;;17.40;99.90;;;;;;5060881;28;20029;-82
2023/07/01 07:08:36;;;;;;;0.43;0.43;;;17.30;99.90;;;;;;5061753;28;20040;-79
2023/07/01 07:11:02;;;;;;;0.70;0.47;;;17.40;99.90;;;;;;5058683;28;20141;-80
2023/07/01 07:13:28;;;;;;;0.63;0.63;;;17.40;99.90;;;;;;5057569;28;20024;-84
2023/07/01 07:15:54;;;;;;;0.00;0.00;;;17.40;99.90;;;;;;5061330;28;20029;-84
2023/07/01 07:18:20;;;;;;;0.10;0.10;;;17.40;99.90;;;;;;5069530;28;20032;-83
2023/07/01 07:20:46;;;;;;;2.55;0.93;;;17.40;99.90;;;;;;5071796;28;20469;-80
2023/07/01 07:23:11;;;;;;;0.63;0.55;;;17.40;99.90;;;;;;5059494;28;20040;-81
2023/07/01 07:25:38;;;;;;;0.00;0.00;;;17.50;99.90;;;;;;5059366;28;20017;-86
2023/07/01 07:28:04;;;;;;;0.10;0.10;;;17.60;99.90;;;;;;5062741;28;20544;-83
2023/07/01 07:30:30;;;;;;;0.10;0.10;;;17.60;99.90;;;;;;5072231;28;20030;-82
2023/07/01 07:32:56;;;;;;;0.57;0.57;;;17.50;99.90;;;;;;5057773;28;20043;-82
2023/07/01 07:35:22;;;;;;;0.43;0.40;;;17.50;99.90;;;;;;5051169;28;20533;-83
2023/07/01 07:37:49;;;;;;;0.90;0.77;;;17.60;99.90;;;;;;5051036;28;20470;-82
2023/07/01 07:40:15;;;;;;;0.60;0.60;;;17.50;99.90;;;;;;5054641;28;20040;-82
2023/07/01 07:42:44;;;;;;;0.93;0.75;;;17.40;99.90;;;;;;5053173;28;20033;-80
2023/07/01 07:45:10;;;;;;;2.45;0.43;;;17.50;99.90;;;;;;5053329;28;20485;-80
2023/07/01 07:47:37;;;;;;;1.20;0.70;;;17.40;99.90;;;;;;5054682;28;20078;-80
2023/07/01 07:50:03;;;;;;;0.68;0.10;;;17.50;99.90;;;;;;5054296;28;20029;-80
2023/07/01 07:52:29;;;;;;;0.65;0.65;;;17.50;99.90;;;;;;5054471;28;20029;-80
2023/07/01 07:54:54;;;;;;;0.20;0.17;;;17.50;99.90;;;;;;5054265;28;20040;-80
2023/07/01 07:57:20;;;;;;;1.83;0.77;;;17.80;99.90;;;;;;5054435;28;20465;-80
2023/07/01 07:59:46;;;;;;;1.55;0.10;;;17.70;99.90;;;;;;5054416;28;20050;-80
2023/07/01 08:02:12;;;;;;;0.43;0.43;;;17.70;99.90;;;;;;5053944;28;20043;-80
2023/07/01 08:04:37;;;;;;;0.28;0.25;;;17.70;99.90;;;;;;5067879;28;20066;-80
2023/07/01 08:07:04;;;;;;;1.27;0.98;;;17.80;99.90;;;;;;5058469;28;20051;-80
2023/07/01 08:09:30;;;;;;;2.00;0.93;;;17.70;99.90;;;;;;5060140;28;20071;-79
2023/07/01 08:11:58;;;;;;;0.45;0.20;;;17.70;99.90;;;;;;5053735;28;20024;-81
2023/07/01 08:14:27;;;;;;;1.83;0.60;;;17.80;99.90;;;;;;5054192;28;20044;-79
2023/07/01 08:16:54;;;;;;;0.63;0.40;;;17.70;99.90;;;;;;5052767;28;20029;-80
2023/07/01 08:19:20;;;;;;;0.63;0.50;;;17.80;99.90;;;;;;5053679;28;20033;-80
2023/07/01 08:21:46;;;;;;;0.40;0.40;;;17.90;99.90;;;;;;5053755;28;20021;-79
2023/07/01 08:24:12;;;;;;;0.35;0.30;;;17.80;99.90;;;;;;5052650;28;20058;-79
2023/07/01 08:26:37;;;;;;;0.35;0.35;;;17.90;99.90;;;;;;5053799;28;20025;-77
2023/07/01 08:29:08;;;;;;;0.43;0.43;;;17.90;99.90;;;;;;5052800;28;20373;-80
2023/07/01 08:31:34;;;;;;;1.15;0.20;;;18.00;99.90;;;;;;5036109;28;20485;-80
2023/07/01 08:34:02;;;;;;;0.10;0.10;;;17.90;99.90;;;;;;5055002;28;20118;-80
2023/07/01 08:36:28;;;;;;;1.30;0.75;;;17.90;99.90;;;;;;5054514;28;20104;-85
2023/07/01 08:38:54;;;;;;;0.13;0.00;;;18.00;99.90;;;;;;5054909;28;20434;-86
2023/07/01 08:41:23;;;;;;;0.63;0.55;;;18.00;99.90;;;;;;5055362;28;20054;-83
2023/07/01 08:43:52;;;;;;;0.43;0.43;;;18.00;99.90;;;;;;5043908;28;20036;-86
2023/07/01 08:46:19;;;;;;;0.13;0.13;;;17.90;99.90;;;;;;5056122;28;20021;-81
2023/07/01 08:48:46;;;;;;;0.88;0.85;;;18.00;99.90;;;;;;5054971;28;20029;-84
2023/07/01 08:51:30;;;;;;;0.63;0.63;;;17.90;99.90;;;;;;5053585;28;20375;-81
2023/07/01 08:54:00;;;;;;;0.55;0.50;;;18.10;99.90;;;;;;5053178;28;20035;-85
2023/07/01 08:56:26;;;;;;;0.17;0.17;;;18.10;99.90;;;;;;5054181;28;20075;-81
2023/07/01 08:58:52;;;;;;;3.33;1.10;;;18.30;99.90;;;;;;5053427;28;20114;-83
2023/07/01 09:01:18;;;;;;;0.43;0.38;;;18.30;99.90;;;;;;5055076;28;20379;-81
2023/07/01 09:03:48;;;;;;;0.10;0.10;;;18.30;99.90;;;;;;5067501;28;20048;-83
2023/07/01 09:06:14;;;;;;;0.30;0.30;;;18.60;99.90;;;;;;5062659;28;20083;-82
2023/07/01 09:08:39;;;;;;;0.20;0.20;;;18.70;99.90;;;;;;5054046;28;20071;-82
2023/07/01 09:11:14;;;;;;;0.15;0.15;;;18.80;99.90;;;;;;5052814;28;20102;-84
2023/07/01 09:13:41;;;;;;;0.00;0.00;;;18.50;99.90;;;;;;5064180;28;20032;-82
2023/07/01 09:16:07;;;;;;;0.00;0.00;;;18.60;99.90;;;;;;5052735;28;20384;-82
2023/07/01 09:18:33;;;;;;;1.15;0.65;;;18.70;99.90;;;;;;5052501;28;20037;-82
2023/07/01 09:20:59;;;;;;;0.08;0.08;;;18.60;99.90;;;;;;5052977;28;20043;-82
2023/07/01 09:23:34;;;;;;;0.47;0.47;;;18.90;99.90;;;;;;5053221;28;20044;-81
2023/07/01 09:26:20;;;;;;;0.95;0.30;;;18.70;99.90;;;;;;5053365;28;20025;-82
2023/07/01 09:28:47;;;;;;;0.60;0.60;;;18.60;99.90;;;;;;5046333;28;20025;-82
2023/07/01 09:31:15;;;;;;;0.00;0.00;;;18.50;99.90;;;;;;5051821;28;20112;-81
2023/07/01 09:33:56;;;;;;;0.20;0.20;;;18.70;99.90;;;;;;5054043;28;20025;-81
2023/07/01 09:36:25;;;;;;;0.40;0.40;;;18.80;99.90;;;;;;5046283;28;20060;-81
2023/07/01 09:38:52;;;;;;;0.32;0.32;;;19.00;99.90;;;;;;5052083;28;20341;-80
2023/07/01 09:41:19;;;;;;;0.00;0.00;;;18.80;99.90;;;;;;5052773;28;20454;-81
2023/07/01 09:43:45;;;;;;;0.60;0.47;;;18.80;99.90;;;;;;5050123;28;20065;-81
2023/07/01 09:46:11;;;;;;;1.42;0.50;;;18.80;99.90;;;;;;5044471;28;20064;-81
2023/07/01 09:48:37;;;;;;;0.20;0.20;;;18.90;99.90;;;;;;5046861;28;20028;-81
2023/07/01 09:51:04;;;;;;;0.08;0.08;;;18.90;99.90;;;;;;5052098;28;20029;-81
2023/07/01 09:53:32;;;;;;;0.10;0.10;;;19.10;99.90;;;;;;5047959;28;20104;-81
2023/07/01 09:56:02;;;;;;;0.10;0.10;;;19.10;99.90;;;;;;5050899;28;20086;-81
2023/07/01 09:58:28;;;;;;;0.65;0.60;;;18.90;99.90;;;;;;5051153;28;20017;-81
2023/07/01 10:00:57;;;;;;;0.30;0.30;;;18.80;99.90;;;;;;5051866;28;20029;-81
2023/07/01 10:03:25;;;;;;;0.05;0.05;;;18.70;99.90;;;;;;5047231;28;20482;-81
2023/07/01 10:05:52;;;;;;;1.05;1.00;;;18.90;99.90;;;;;;5052451;28;20032;-80
2023/07/01 10:08:19;;;;;;;2.67;1.30;;;18.70;99.90;;;;;;5052128;28;20036;-81
2023/07/01 10:11:03;;;;;;;0.40;0.40;;;19.00;99.90;;;;;;5051428;28;20116;-81
2023/07/01 10:13:33;;;;;;;1.38;0.52;;;19.30;99.90;;;;;;5051362;28;20060;-81
2023/07/01 10:16:02;;;;;;;3.00;0.65;;;19.50;99.90;;;;;;5050706;28;20025;-80
2023/07/01 10:18:30;;;;;;;0.32;0.32;;;19.30;99.90;;;;;;5051789;28;20044;-81
2023/07/01 10:21:25;;;;;;;0.52;0.30;;;19.40;99.90;;;;;;5051973;28;20025;-80
2023/07/01 10:23:51;;;;;;;2.97;1.60;;;19.30;99.90;;;;;;5034671;28;20055;-80
2023/07/01 10:26:34;;;;;;;1.13;0.47;;;19.30;99.90;;;;;;5051846;28;20025;-81
2023/07/01 10:29:26;;;;;;;1.55;0.75;;;19.50;99.90;;;;;;5059723;28;20051;-81
2023/07/01 10:32:13;;;;;;;0.15;0.15;;;19.60;99.90;;;;;;5041036;28;20032;-80
2023/07/01 10:34:55;;;;;;;6.75;2.00;;;19.90;99.90;;;;;;5051289;28;20025;-80
2023/07/01 10:37:22;;;;;;;1.92;1.08;;;19.30;99.90;;;;;;5050648;28;20064;-80
2023/07/01 10:39:49;;;;;;;0.95;0.90;;;19.40;99.90;;;;;;5051464;28;20047;-80
2023/07/01 10:42:31;;;;;;;3.55;2.25;;;19.40;99.90;;;;;;5051600;28;20068;-80
2023/07/01 10:45:12;;;;;;;1.65;1.42;;;19.00;99.90;;;;;;5051156;28;20051;-80
2023/07/01 10:48:06;;;;;;;2.17;1.50;;;19.20;99.90;;;;;;5041272;28;20025;-81
2023/07/01 10:50:32;;;;;;;0.93;0.47;;;19.00;99.90;;;;;;5039202;28;20037;-79
2023/07/01 10:52:58;;;;;;;3.60;1.50;;;19.20;99.90;;;;;;5051114;28;20066;-80
2023/07/01 10:55:38;;;;;;;1.75;1.23;;;19.60;99.90;;;;;;5049668;28;20045;-80
2023/07/01 10:58:14;;;;;;;1.48;1.10;;;19.50;99.90;;;;;;5051160;28;20032;-79
2023/07/01 11:00:41;;;;;;;3.28;2.25;;;19.50;99.90;;;;;;5051237;28;20025;-79
2023/07/01 11:03:29;;;;;;;2.67;1.77;;;19.50;99.90;;;;;;5054991;28;20124;-80
2023/07/01 11:06:02;;;;;;;0.98;0.85;;;19.50;99.90;;;;;;5039874;28;20517;-80
2023/07/01 11:08:30;;;;;;;5.15;1.27;;;19.50;99.90;;;;;;5049058;28;20032;-79
2023/07/01 11:10:55;;;;;;;0.57;0.57;;;19.30;99.90;;;;;;5043030;28;20063;-80
2023/07/01 11:13:22;;;;;;;1.73;1.20;;;19.40;99.90;;;;;;5051186;28;20025;-80
2023/07/01 11:16:08;;;;;;;4.30;3.08;;;19.60;99.90;;;;;;5053527;28;20028;-79
2023/07/01 11:18:47;;;;;;;3.17;2.28;;;19.50;99.90;;;;;;5050616;28;20067;-80
2023/07/01 11:21:17;;;;;;;2.95;2.60;;;19.60;99.90;;;;;;5054973;28;20033;-80
2023/07/01 11:23:51;;;;;;;0.85;0.85;;;20.00;99.90;;;;;;5055089;28;20071;-80
2023/07/01 11:26:19;;;;;;;1.20;1.10;;;20.60;99.90;;;;;;5053775;28;20052;-80
2023/07/01 11:28:45;;;;;;;12.98;3.80;;;20.60;99.90;;;;;;5054615;28;20116;-80
2023/07/01 11:31:20;;;;;;;2.65;1.70;;;20.40;99.90;;;;;;5054674;28;20104;-80
2023/07/01 11:33:50;;;;;;;2.97;1.52;;;20.70;99.90;;;;;;5054557;28;20039;-80
2023/07/01 11:36:18;;;;;;;0.35;0.32;;;20.30;99.90;;;;;;5054894;28;20370;-80
2023/07/01 11:38:45;;;;;;;0.00;0.00;;;19.60;99.90;;;;;;5054972;28;20036;-80
2023/07/01 11:41:23;;;;;;;0.00;0.00;;;19.40;99.90;;;;;;5054730;28;20025;-80
2023/07/01 11:43:49;;;;;;;0.45;0.45;;;19.60;99.90;;;;;;5054027;28;20056;-80
2023/07/01 11:46:33;;;;;;;0.20;0.20;;;19.20;99.90;;;;;;5054247;28;20083;-80
2023/07/01 11:49:18;;;;;;;0.52;0.30;;;19.20;99.90;;;;;;5054731;28;20111;-79
2023/07/01 11:51:52;;;;;;;0.15;0.08;;;19.30;99.90;;;;;;5054601;28;20108;-80
2023/07/01 11:54:21;;;;;;;0.30;0.30;;;19.10;99.90;;;;;;5054012;28;20075;-81
2023/07/01 11:56:48;;;;;;;1.15;0.90;;;19.20;99.90;;;;;;5046610;28;20041;-80
2023/07/01 11:59:34;;;;;;;0.32;0.32;;;19.20;99.90;;;;;;5054416;28;20073;-80
2023/07/01 12:02:00;;;;;;;2.28;0.13;;;19.30;99.90;;;;;;5054776;28;20387;-79
2023/07/01 12:04:27;;;;;;;0.00;0.00;;;19.40;99.90;;;;;;5058405;28;20116;-80
2023/07/01 12:07:13;;;;;;;0.55;0.17;;;19.40;99.90;;;;;;5054449;28;20485;-80
2023/07/01 12:09:44;;;;;;;0.17;0.17;;;19.70;99.90;;;;;;5054337;28;20055;-80
2023/07/01 12:12:13;;;;;;;0.08;0.08;;;20.20;99.90;;;;;;5054464;28;20043;-80
2023/07/01 12:14:39;;;;;;;2.72;1.52;;;20.10;99.90;;;;;;5053720;28;20381;-79
2023/07/01 12:17:05;;;;;;;0.13;0.13;;;19.70;99.90;;;;;;5054203;28;20032;-79
2023/07/01 12:19:31;;;;;;;1.65;1.25;;;19.80;99.90;;;;;;5054059;28;20033;-80
2023/07/01 12:21:59;;;;;;;0.00;0.00;;;19.70;99.90;;;;;;5052573;28;20021;-81
2023/07/01 12:24:27;;;;;;;0.32;0.32;;;20.10;99.90;;;;;;5054005;28;20585;-82
2023/07/01 12:26:55;;;;;;;0.47;0.47;;;20.30;99.90;;;;;;5053817;28;20032;-79
2023/07/01 12:29:22;;;;;;;3.25;1.27;;;20.20;99.90;;;;;;5053940;28;20469;-79
2023/07/01 12:31:48;;;;;;;1.30;1.20;;;20.10;99.90;;;;;;5053933;28;20111;-79
2023/07/01 12:34:14;;;;;;;2.10;1.75;;;20.10;99.90;;;;;;5035967;28;20960;-79
2023/07/01 12:36:43;;;;;;;8.57;0.90;;;20.20;99.90;;;;;;5053950;28;20021;-80
2023/07/01 12:39:09;;;;;;;0.22;0.22;;;20.20;99.90;;;;;;5044004;28;20063;-79
2023/07/01 12:41:35;;;;;;;1.98;1.40;;;20.10;99.90;;;;;;5053676;28;20079;-79
2023/07/01 12:44:05;;;;;;;0.68;0.68;;;20.10;99.90;;;;;;5053329;28;20048;-79
2023/07/01 12:46:32;;;;;;;0.47;0.47;;;20.00;99.90;;;;;;5053790;28;20140;-80
2023/07/01 12:49:00;;;;;;;0.93;0.57;;;19.90;99.90;;;;;;5053679;28;20060;-79
2023/07/01 12:51:27;;;;;;;2.00;1.33;;;19.90;99.90;;;;;;5053781;28;20013;-81